03:28
Airports
History
Links
Donate
Help keep this website running!
PayPal
Bitcoin
Information on this page is community maintained and may be outdated or inaccurate and is intended for reference only or PC simulator navigating!
Always use approved charts for navigating.
SBBU
BAURU
BAURU (SBBU)
Bauru, São Paulo, Brazil (17012191)
(U)
Lat/Lng:22° 20' 42.15" S / 49° 3' 13.69" W
-22.345041 / -49.053802
Elevation:2025'ft 617mMSL
ID / ICAO:SBBU
Runways:1
Longest:(14-32) 1,496.7m 4,910ft Asphalt
Distance To
Airport ID:
Airport Radio Frequencies
ATIS: 127.87
Tower: 121.3
Approach: 121.3
METARUpdated 03-26-17 01:00 GMT
Altimeter: 30.00
Visibility: 6.2 statute miles
Wind: 10 knots (100°)
Temp: 24°c 75°f
Humidity: 78.4%

METAR: SBBU 260100Z 10010G20KT CAVOK 24/20 Q1016

(Powered by phpweather)
Runway 14 / 32
Dimensions:1496.7 x 35.1m 4910' x 115'ft
Surface:Asphalt
Edge Lights:Low intensity
Runway 14 [A]Runway 32 [B]
Heading:122°TH 302°TH
Lat:
Lng:
22° 20' 29.01"S
49° 3' 35.78"W
22° 20' 55.28"S
49° 2' 51.59"W
Google Map
Nearby Airports
4 Fazenda Shangri-la 10.7 NM
SDSH WNW 288°
(U) Bauru - Arealva 13.0 NM
SBAE N 355°
4 Pederneiras 18.2 NM
SSOI E 81°
4 Fazenda Bonanza 19.9 NM
SJEJ NW 311°
(C) Lencois Paulista 24.0 NM
SDLP SE 132°
4 Fazenda Sao Lucas 26.3 NM
SDKC W 276°
4 Fazenda Guandu 28.1 NM
SDZV WSW 251°
VFR Chart
Flight Planning at SkyVector.com